createdAt,value
2019-04-22T00:03:10.683Z,15.30
2019-04-22T00:08:30.934Z,15.20
2019-04-22T00:13:25.960Z,15.10
2019-04-22T00:18:19.931Z,15.00
2019-04-22T00:23:13.244Z,15.00
2019-04-22T00:28:15.756Z,14.80
2019-04-22T00:33:08.014Z,14.80
2019-04-22T00:38:12.829Z,14.70
2019-04-22T00:43:11.324Z,14.60
2019-04-22T00:48:09.241Z,14.50
2019-04-22T00:53:04.561Z,14.40
2019-04-22T00:57:54.642Z,14.30
2019-04-22T01:02:54.576Z,14.20
2019-04-22T01:07:49.179Z,14.20
2019-04-22T01:12:44.389Z,14.00
2019-04-22T01:17:43.516Z,13.90
2019-04-22T01:22:32.972Z,13.80
2019-04-22T01:27:22.205Z,13.70
2019-04-22T01:32:13.177Z,13.70
2019-04-22T01:37:19.762Z,13.60
2019-04-22T01:42:18.741Z,13.60
2019-04-22T01:47:21.283Z,13.50
2019-04-22T01:52:15.461Z,13.50
2019-04-22T01:57:03.641Z,13.50
2019-04-22T02:02:09.268Z,13.40
2019-04-22T02:07:03.217Z,13.30
2019-04-22T02:12:00.225Z,13.20
2019-04-22T02:16:56.163Z,13.10
2019-04-22T02:21:48.803Z,13.30
2019-04-22T02:26:49.912Z,13.40
2019-04-22T02:31:45.338Z,13.30
2019-04-22T02:36:45.154Z,13.30
2019-04-22T03:06:29.580Z,13.00
2019-04-22T03:11:12.483Z,13.10
2019-04-22T03:16:17.738Z,13.20
2019-04-22T03:26:11.480Z,13.30
2019-04-22T03:32:01.956Z,13.30
2019-04-22T03:37:03.612Z,13.30
2019-04-22T03:41:39.301Z,13.30
2019-04-22T03:46:21.450Z,13.30
2019-04-22T03:51:26.861Z,13.20
2019-04-22T03:56:18.808Z,13.20
2019-04-22T04:01:19.711Z,13.10
2019-04-22T04:06:06.647Z,13.00
2019-04-22T04:10:53.513Z,13.00
2019-04-22T04:15:53.547Z,13.00
2019-04-22T04:21:09.037Z,13.00
2019-04-22T04:30:36.589Z,13.00
2019-04-22T04:45:40.002Z,13.20
2019-04-22T04:50:27.321Z,13.30
2019-04-22T05:15:11.605Z,13.90
2019-04-22T05:20:07.357Z,14.10
2019-04-22T05:24:59.776Z,14.20
2019-04-22T05:30:08.811Z,14.30
2019-04-22T05:34:48.622Z,14.50
2019-04-22T05:39:43.658Z,14.90
2019-04-22T05:44:44.071Z,16.40
2019-04-22T05:49:31.259Z,17.70
2019-04-22T05:59:28.884Z,18.00
2019-04-22T06:04:39.115Z,18.10
2019-04-22T06:09:20.539Z,17.90
2019-04-22T06:14:14.981Z,18.00
2019-04-22T06:19:16.818Z,18.50
2019-04-22T06:24:10.869Z,18.40
2019-04-22T06:29:01.336Z,18.80
2019-04-22T06:34:02.312Z,18.90
2019-04-22T06:38:55.282Z,19.30
2019-04-22T06:43:51.474Z,19.10
2019-04-22T06:48:43.992Z,19.50
2019-04-22T06:53:40.561Z,20.00
2019-04-22T06:58:36.578Z,20.80
2019-04-22T07:13:32.013Z,21.30
2019-04-22T07:18:28.730Z,21.60
2019-04-22T07:23:21.445Z,22.40
2019-04-22T07:28:11.233Z,24.00
2019-04-22T07:38:04.677Z,24.50
2019-04-22T07:43:02.514Z,24.60
2019-04-22T07:47:58.946Z,25.00
2019-04-22T07:52:45.013Z,25.40
2019-04-22T07:57:39.256Z,26.30
2019-04-22T08:02:38.008Z,24.50
2019-04-22T08:07:36.304Z,24.70
2019-04-22T08:12:36.014Z,26.50
2019-04-22T08:17:45.138Z,25.10
2019-04-22T08:22:14.225Z,25.40
2019-04-22T08:27:15.433Z,26.60
2019-04-22T08:32:15.067Z,26.90
2019-04-22T08:37:36.590Z,24.70
2019-04-22T08:41:57.604Z,25.60
2019-04-22T08:47:04.744Z,25.60
2019-04-22T08:51:59.027Z,26.40
2019-04-22T08:56:56.948Z,27.20
2019-04-22T09:01:41.940Z,27.80
2019-04-22T09:07:06.028Z,27.40
2019-04-22T09:11:41.774Z,27.20
2019-04-22T09:16:37.325Z,27.50
2019-04-22T09:21:32.634Z,26.80
2019-04-22T09:26:30.696Z,26.30
2019-04-22T09:31:19.616Z,26.80
2019-04-22T09:36:23.025Z,27.90
2019-04-22T09:41:13.954Z,26.00
2019-04-22T09:46:19.188Z,25.80
2019-04-22T09:51:09.829Z,26.20
2019-04-22T09:56:05.881Z,27.10
2019-04-22T10:01:38.587Z,26.50
2019-04-22T10:11:24.029Z,26.30
2019-04-22T10:16:10.465Z,25.60
2019-04-22T10:21:12.330Z,25.30
2019-04-22T10:25:59.111Z,24.70
2019-04-22T10:30:52.207Z,24.80
2019-04-22T10:35:30.303Z,25.10
2019-04-22T10:40:50.303Z,25.00
2019-04-22T10:45:44.280Z,25.20
2019-04-22T10:50:41.335Z,24.90
2019-04-22T10:55:35.104Z,24.90
2019-04-22T11:00:29.323Z,24.40
2019-04-22T11:05:24.081Z,24.60
2019-04-22T11:10:35.131Z,24.20
2019-04-22T11:15:13.934Z,24.40
2019-04-22T11:20:07.986Z,24.60
2019-04-22T11:25:01.480Z,24.70
2019-04-22T11:29:55.423Z,24.70
2019-04-22T11:34:49.110Z,24.50
2019-04-22T11:39:42.655Z,24.60
2019-04-22T11:44:37.150Z,24.50
2019-04-22T11:49:32.009Z,24.50
2019-04-22T11:54:25.365Z,24.60
2019-04-22T11:59:18.781Z,24.80
2019-04-22T12:04:13.707Z,24.70
2019-04-22T12:09:12.194Z,25.10
2019-04-22T12:14:06.227Z,25.30
2019-04-22T12:19:00.865Z,25.20
2019-04-22T12:23:55.006Z,25.40
2019-04-22T12:28:51.070Z,25.30
2019-04-22T12:33:45.396Z,25.00
2019-04-22T12:38:39.893Z,25.30
2019-04-22T12:43:33.694Z,25.20
2019-04-22T12:48:27.540Z,25.50
2019-04-22T12:53:24.105Z,25.80
2019-04-22T12:58:16.219Z,25.50
2019-04-22T13:03:11.055Z,25.30
2019-04-22T13:08:07.453Z,25.60
2019-04-22T13:13:00.961Z,25.70
2019-04-22T13:18:06.070Z,25.80
2019-04-22T13:22:50.562Z,25.80
2019-04-22T13:27:44.892Z,26.20
2019-04-22T13:32:38.822Z,26.40
2019-04-22T13:37:32.755Z,26.20
2019-04-22T13:42:27.580Z,25.90
2019-04-22T13:47:34.990Z,26.10
2019-04-22T13:52:48.589Z,26.50
2019-04-22T13:57:32.623Z,26.60
2019-04-22T14:02:46.474Z,26.60
2019-04-22T14:07:41.166Z,26.10
2019-04-22T14:12:35.305Z,26.00
2019-04-22T14:17:31.488Z,26.40
2019-04-22T14:22:26.263Z,26.40
2019-04-22T14:27:31.766Z,26.50
2019-04-22T14:32:19.331Z,26.00
2019-04-22T14:37:10.242Z,26.00
2019-04-22T14:42:27.016Z,26.00
2019-04-22T14:47:19.875Z,26.00
2019-04-22T14:52:16.401Z,26.40
2019-04-22T14:56:49.279Z,26.60
2019-04-22T15:01:43.521Z,26.20
2019-04-22T15:06:38.038Z,26.00
2019-04-22T15:11:44.870Z,25.80
2019-04-22T15:16:42.588Z,26.20
2019-04-22T15:21:36.716Z,26.00
2019-04-22T15:26:30.689Z,26.10
2019-04-22T15:31:24.311Z,26.30
2019-04-22T15:36:18.065Z,26.30
2019-04-22T15:41:12.505Z,25.90
2019-04-22T15:46:09.669Z,25.60
2019-04-22T15:51:04.703Z,25.60
2019-04-22T15:55:58.800Z,25.60
2019-04-22T16:01:04.186Z,25.50
2019-04-22T16:05:50.101Z,25.50
2019-04-22T16:10:43.992Z,25.50
2019-04-22T16:15:38.379Z,25.10
2019-04-22T16:20:32.179Z,25.10
2019-04-22T16:25:49.447Z,25.00
2019-04-22T16:30:43.596Z,24.90
2019-04-22T16:35:37.074Z,24.80
2019-04-22T16:40:30.565Z,24.80
2019-04-22T16:45:25.293Z,24.80
2019-04-22T16:50:18.984Z,24.80
2019-04-22T16:55:12.877Z,24.50
2019-04-22T17:00:08.899Z,24.30
2019-04-22T17:05:11.529Z,24.20
2019-04-22T17:10:08.068Z,24.20
2019-04-22T17:15:06.134Z,24.10
2019-04-22T17:19:57.685Z,23.90
2019-04-22T17:24:51.208Z,23.70
2019-04-22T17:29:44.573Z,23.70
2019-04-22T17:34:39.263Z,23.60
2019-04-22T17:39:45.366Z,23.50
2019-04-22T17:44:57.108Z,23.40
2019-04-22T17:49:57.937Z,23.30
2019-04-22T17:54:43.438Z,23.20
2019-04-22T17:59:45.219Z,23.10
2019-04-22T18:04:16.615Z,23.00
2019-04-22T18:09:57.942Z,22.80
2019-04-22T18:19:21.233Z,22.50
2019-04-22T18:24:09.340Z,22.40
2019-04-22T18:29:16.136Z,22.20
2019-04-22T18:34:04.105Z,22.00
2019-04-22T18:39:10.087Z,21.80
2019-04-22T18:44:06.173Z,21.70
2019-04-22T18:48:58.144Z,21.50
2019-04-22T18:54:19.735Z,21.40
2019-04-22T18:59:07.733Z,21.20
2019-04-22T19:03:58.222Z,21.10
2019-04-22T19:09:10.562Z,21.00
2019-04-22T19:14:07.484Z,20.80
2019-04-22T19:19:21.209Z,20.60
2019-04-22T19:23:53.999Z,20.40
2019-04-22T19:28:49.484Z,20.20
2019-04-22T19:33:49.294Z,20.20
2019-04-22T19:38:28.646Z,20.00
2019-04-22T19:43:35.618Z,19.80
2019-04-22T19:53:32.091Z,19.60
2019-04-22T19:58:18.257Z,19.40
2019-04-22T20:03:42.717Z,19.30
2019-04-22T20:08:30.236Z,19.10
2019-04-22T20:13:33.529Z,18.90
2019-04-22T20:23:15.910Z,18.70
2019-04-22T20:28:15.051Z,18.70
2019-04-22T20:33:06.408Z,18.50
2019-04-22T20:38:04.247Z,18.30
2019-04-22T20:43:01.685Z,18.30
2019-04-22T20:47:48.999Z,18.10
2019-04-22T20:57:49.525Z,17.80
2019-04-22T21:02:32.616Z,17.70
2019-04-22T21:07:32.514Z,17.60
2019-04-22T21:12:27.782Z,17.50
2019-04-22T21:17:31.171Z,17.40
2019-04-22T21:22:27.398Z,17.30
2019-04-22T21:27:45.638Z,17.10
2019-04-22T21:32:21.743Z,17.00
2019-04-22T21:37:33.024Z,16.90
2019-04-22T21:42:14.233Z,16.90
2019-04-22T21:47:14.582Z,16.80
2019-04-22T21:52:05.400Z,16.60
2019-04-22T22:02:11.776Z,16.40
2019-04-22T22:06:54.566Z,16.30
2019-04-22T22:11:52.623Z,16.30
2019-04-22T22:16:47.335Z,16.20
2019-04-22T22:22:05.979Z,16.00
2019-04-22T22:26:44.868Z,15.90
2019-04-22T22:31:47.269Z,15.80
2019-04-22T22:36:31.081Z,15.80
2019-04-22T22:41:10.081Z,15.70
2019-04-22T22:46:17.748Z,15.60
2019-04-22T22:51:32.541Z,15.50
2019-04-22T22:56:18.135Z,15.50
2019-04-22T23:01:04.198Z,15.40
2019-04-22T23:06:12.457Z,15.30
2019-04-22T23:11:05.091Z,15.20
2019-04-22T23:15:50.759Z,15.10
2019-04-22T23:20:38.249Z,15.10
2019-04-22T23:25:54.989Z,15.00
2019-04-22T23:30:58.045Z,14.90
2019-04-22T23:36:23.704Z,14.80
2019-04-22T23:46:28.471Z,14.60
2019-04-22T23:51:26.474Z,14.60
2019-04-22T23:56:27.005Z,14.50
